Aérodrome de Bordeaux-Léognan-Saucats

LFCS

May 22, 2022

Time Code Weather Temp. Visibility Clouds Wind METAR/SPECI
10:00 am
V
70 °F 6¼ mi+ - 100°   100° 6 kt METAR LFBU 220800Z AUTO 10006KT 060V140 CAVOK 21/16 Q1011 NOSIG
9:30 am
V
66 °F 6¼ mi+ - 040°   040° 12 kt METAR LFBU 220730Z AUTO 04012KT CAVOK 19/15 Q1010 NOSIG
9:00 am
V
66 °F 6¼ mi+ - 050°   050° 6 kt METAR LFBU 220700Z AUTO 05006KT 9999 ///TCU 19/15 Q1012 BECMG NSC
8:30 am
V
66 °F 6¼ mi+ - 040°   040° 9 kt METAR LFBU 220630Z AUTO 04009KT CAVOK 19/14 Q1012 NOSIG
8:00 am
V
64 °F 6¼ mi+ - 020°   020° 6 kt METAR LFBU 220600Z AUTO 02006KT CAVOK 18/14 Q1012 NOSIG
7:30 am
V
64 °F 6¼ mi+ - 020°   020° 6 kt METAR LFBU 220530Z AUTO 02006KT CAVOK 18/13 Q1013
7:00 am
V
64 °F 6¼ mi+ - 350°   350° 7 kt METAR LFBU 220500Z AUTO 35007KT 320V020 CAVOK 18/13 Q1013
6:30 am
V
64 °F 6¼ mi+ - 010°   010° 6 kt METAR LFBU 220430Z AUTO 01006KT CAVOK 18/14 Q1013
6:00 am
V
64 °F 6¼ mi+ - Var   Var 1 kt METAR LFBU 220400Z AUTO VRB01KT CAVOK 18/14 Q1013
5:30 am
V
66 °F 6¼ mi+ - 360°   360° 5 kt METAR LFBU 220330Z AUTO 36005KT CAVOK 19/14 Q1013
5:00 am
V
66 °F 6¼ mi+ - Var   Var 2 kt METAR LFBU 220300Z AUTO VRB02KT CAVOK 19/14 Q1013
4:30 am
V
66 °F 6¼ mi+ - 030°   030° 4 kt METAR LFBU 220230Z AUTO 03004KT CAVOK 19/14 Q1013
4:00 am
V
68 °F 6¼ mi+ - 030°   030° 6 kt METAR LFBU 220200Z AUTO 03006KT CAVOK 20/14 Q1013
3:30 am
V
68 °F 6¼ mi+ - 360°   360° 6 kt METAR LFBU 220130Z AUTO 36006KT CAVOK 20/14 Q1013
3:00 am
V
68 °F 6¼ mi+ - 030°   030° 6 kt METAR LFBU 220100Z AUTO 03006KT CAVOK 20/14 Q1013
2:30 am
V
70 °F 6¼ mi+ - Var   Var 3 kt METAR LFBU 220030Z AUTO VRB03KT CAVOK 21/14 Q1014
2:00 am
V
72 °F 6¼ mi+ - 030°   030° 5 kt METAR LFBU 220000Z AUTO 03005KT CAVOK 22/15 Q1014
1:30 am
V
72 °F 6¼ mi+ - 010°   010° 7 kt METAR LFBU 212330Z AUTO 01007KT CAVOK 22/15 Q1014
1:00 am
V
73 °F 6¼ mi+ - 030°   030° 8 kt METAR LFBU 212300Z AUTO 03008KT CAVOK 23/15 Q1014
12:30 am
V
73 °F 6¼ mi+ - 040°   040° 9 kt METAR LFBU 212230Z AUTO 04009KT CAVOK 23/15 Q1014
12:00 am
V
75 °F 6¼ mi+ - 030°   030° 9 kt METAR LFBU 212200Z AUTO 03009KT CAVOK 24/16 Q1015

May 21, 2022

Time Code Weather Temp. Visibility Clouds Wind METAR/SPECI
11:30 pm
V
75 °F 6¼ mi+ - 030°   030° 9 kt METAR LFBU 212130Z AUTO 03009KT CAVOK 24/16 Q1015
11:00 pm
V
75 °F 6¼ mi+ - 020°   020° 8 kt METAR LFBU 212100Z AUTO 02008KT CAVOK 24/17 Q1016 NOSIG
10:30 pm
V
75 °F 6¼ mi+ - 010°   010° 7 kt METAR LFBU 212030Z AUTO 01007KT CAVOK 24/18 Q1016 NOSIG
10:00 pm
V
77 °F 6¼ mi+ - 030°   030° 5 kt METAR LFBU 212000Z AUTO 03005KT CAVOK 25/18 Q1015 NOSIG
9:30 pm
V
79 °F 6¼ mi+ - 020°   020° 5 kt METAR LFBU 211930Z AUTO 02005KT CAVOK 26/18 Q1015 NOSIG
9:00 pm
V
81 °F 6¼ mi+ - 030°   030° 5 kt METAR LFBU 211900Z AUTO 03005KT 360V060 CAVOK 27/18 Q1015 NOSIG
8:30 pm
V
81 °F 6¼ mi+ - 040°   040° 6 kt METAR LFBU 211830Z AUTO 04006KT CAVOK 27/18 Q1015 NOSIG
8:00 pm
V
82 °F 6¼ mi+ - 040°   040° 5 kt METAR LFBU 211800Z AUTO 04005KT CAVOK 28/18 Q1015 NOSIG
7:30 pm
V
84 °F 6¼ mi+ - 020°   020° 3 kt METAR LFBU 211730Z AUTO 02003KT 360V060 CAVOK 29/18 Q1016 NOSIG
7:00 pm
V
84 °F 6¼ mi+ - 030°   030° 4 kt METAR LFBU 211700Z AUTO 03004KT CAVOK 29/17 Q1016 NOSIG
6:30 pm
V
86 °F 6¼ mi+ - 040°   040° 4 kt METAR LFBU 211630Z AUTO 04004KT 360V080 CAVOK 30/17 Q1016 NOSIG
6:00 pm
V
86 °F 6¼ mi+ - 050°   050° 6 kt METAR LFBU 211600Z AUTO 05006KT 020V080 CAVOK 30/17 Q1016 NOSIG
5:30 pm
V
86 °F 6¼ mi+ - 070°   070° 6 kt METAR LFBU 211530Z AUTO 07006KT 030V120 CAVOK 30/17 Q1016 NOSIG
5:00 pm
V
86 °F 6¼ mi+ - 080°   080° 4 kt METAR LFBU 211500Z AUTO 08004KT 050V130 CAVOK 30/17 Q1017 NOSIG
4:30 pm
V
86 °F 6¼ mi+ - Var   Var 4 kt METAR LFBU 211430Z AUTO VRB04KT CAVOK 30/17 Q1017 NOSIG
4:00 pm
V
86 °F 6¼ mi+ - 080°   080° 3 kt METAR LFBU 211400Z AUTO 08003KT 010V160 CAVOK 30/17 Q1018 NOSIG
3:30 pm
V
84 °F 6¼ mi+ - Var   Var 4 kt METAR LFBU 211330Z AUTO VRB04KT CAVOK 29/18 Q1018 NOSIG
3:00 pm
V
84 °F 6¼ mi+ - Var   Var 2 kt METAR LFBU 211300Z AUTO VRB02KT CAVOK 29/17 Q1018 NOSIG
2:30 pm
V
82 °F 6¼ mi+ - 060°   060° 5 kt METAR LFBU 211230Z AUTO 06005KT 350V120 CAVOK 28/17 Q1018 NOSIG
2:00 pm
V
82 °F 6¼ mi+ - Var   Var 4 kt METAR LFBU 211200Z AUTO VRB04KT CAVOK 28/16 Q1019 NOSIG
1:30 pm
V
82 °F 6¼ mi+ - Var   Var 5 kt METAR LFBU 211130Z AUTO VRB05KT CAVOK 28/16 Q1019 NOSIG
1:00 pm
V
81 °F 6¼ mi+ - 080°   080° 5 kt METAR LFBU 211100Z AUTO 08005KT 040V190 CAVOK 27/16 Q1019 NOSIG
12:30 pm
V
81 °F 6¼ mi+ - 100°   100° 4 kt METAR LFBU 211030Z AUTO 10004KT 050V160 CAVOK 27/16 Q1020 NOSIG
12:00 pm
V
79 °F 6¼ mi+ - 080°   080° 5 kt METAR LFBU 211000Z AUTO 08005KT 010V120 CAVOK 26/17 Q1020 NOSIG
11:30 am
V
77 °F 6¼ mi+ - 060°   060° 4 kt METAR LFBU 210930Z AUTO 06004KT 360V130 CAVOK 25/16 Q1020 NOSIG
11:00 am
V
77 °F 6¼ mi+ - Var   Var 3 kt METAR LFBU 210900Z AUTO VRB03KT CAVOK 25/17 Q1020 NOSIG
10:30 am
V
73 °F 6¼ mi+ - Var   Var 3 kt METAR LFBU 210830Z AUTO VRB03KT CAVOK 23/16 Q1021 NOSIG
10:00 am
V
72 °F 6¼ mi+ - Var   Var 1 kt METAR LFBU 210800Z AUTO VRB01KT CAVOK 22/17 Q1021 NOSIG
9:30 am
V
70 °F 6¼ mi+ - Var   Var 1 kt METAR LFBU 210730Z AUTO VRB01KT CAVOK 21/16 Q1021 NOSIG
9:00 am
V
68 °F 6¼ mi+ - Var   Var 1 kt METAR LFBU 210700Z AUTO VRB01KT CAVOK 20/16 Q1021 NOSIG
8:30 am
V
64 °F 6¼ mi+ - Var   Var 2 kt METAR LFBU 210630Z AUTO VRB02KT CAVOK 18/15 Q1021 NOSIG
8:00 am
V
61 °F 6¼ mi+ - 020°   020° 4 kt METAR LFBU 210600Z AUTO 02004KT CAVOK 16/14 Q1021 NOSIG
7:30 am
V
61 °F 6¼ mi+ - Var   Var 3 kt METAR LFBU 210530Z AUTO VRB03KT CAVOK 16/14 Q1021 NOSIG
7:00 am
V
57 °F 6¼ mi+ - Var   Var 3 kt METAR LFBU 210500Z AUTO VRB03KT CAVOK 14/13 Q1021
6:30 am
V
57 °F 6¼ mi+ - 030°   030° 1 kt METAR LFBU 210430Z AUTO 03001KT CAVOK 14/12 Q1021
6:00 am
V
57 °F 6¼ mi+ - Var   Var 3 kt METAR LFBU 210400Z AUTO VRB03KT CAVOK 14/13 Q1022
5:30 am
V
57 °F 6¼ mi+ - Var   000° 0 kt METAR LFBU 210330Z AUTO 00000KT CAVOK 14/13 Q1022
5:00 am
V
57 °F 6¼ mi+ - 030°   030° 4 kt METAR LFBU 210300Z AUTO 03004KT CAVOK 14/13 Q1022
4:30 am
V
57 °F 6¼ mi+ - 010°   010° 8 kt METAR LFBU 210230Z AUTO 01008KT CAVOK 14/13 Q1022
4:00 am
V
59 °F 6¼ mi+ - 360°   360° 6 kt METAR LFBU 210200Z AUTO 36006KT CAVOK 15/12 Q1022
3:30 am
V
59 °F 6¼ mi+ - 020°   020° 5 kt METAR LFBU 210130Z AUTO 02005KT CAVOK 15/13 Q1023
3:00 am
V
57 °F 6¼ mi+ - Var   Var 2 kt METAR LFBU 210100Z AUTO VRB02KT CAVOK 14/12 Q1023
2:30 am
V
59 °F 6¼ mi+ - 340°   340° 2 kt METAR LFBU 210030Z AUTO 34002KT CAVOK 15/12 Q1023
2:00 am
V
61 °F 6¼ mi+ - 320°   320° 2 kt METAR LFBU 210000Z AUTO 32002KT CAVOK 16/12 Q1023
1:30 am
V
61 °F 6¼ mi+ - 290°   290° 3 kt METAR LFBU 202330Z AUTO 29003KT CAVOK 16/12 Q1023
1:00 am
V
61 °F 6¼ mi+ - 280°   280° 4 kt METAR LFBU 202300Z AUTO 28004KT CAVOK 16/12 Q1024
12:30 am
V
63 °F 6¼ mi+ - 280°   280° 6 kt METAR LFBU 202230Z AUTO 28006KT CAVOK 17/12 Q1024
12:00 am
V
64 °F 6¼ mi+ - 280°   280° 6 kt METAR LFBU 202200Z AUTO 28006KT CAVOK 18/13 Q1024

May 20, 2022

Time Code Weather Temp. Visibility Clouds Wind METAR/SPECI
11:30 pm
V
64 °F 6¼ mi+ - 280°   280° 6 kt METAR LFBU 202130Z AUTO 28006KT CAVOK 18/13 Q1024
11:00 pm
V
66 °F 6¼ mi+ - 280°   280° 7 kt METAR LFBU 202100Z AUTO 28007KT CAVOK 19/13 Q1024 NOSIG
10:30 pm
V
68 °F 6¼ mi+ - 270°   270° 6 kt METAR LFBU 202030Z AUTO 27006KT CAVOK 20/13 Q1024 NOSIG
10:00 pm
V
70 °F 6¼ mi+ - 250°   250° 4 kt METAR LFBU 202000Z AUTO 25004KT 220V280 CAVOK 21/12 Q1023 NOSIG
9:30 pm
V
72 °F 6¼ mi+ - 260°   260° 5 kt METAR LFBU 201930Z AUTO 26005KT CAVOK 22/13 Q1023 NOSIG
9:00 pm
V
73 °F 6¼ mi+ - 260°   260° 5 kt METAR LFBU 201900Z AUTO 26005KT CAVOK 23/13 Q1023 NOSIG
8:30 pm
V
75 °F 6¼ mi+ - 260°   260° 5 kt METAR LFBU 201830Z AUTO 26005KT CAVOK 24/13 Q1023 NOSIG
8:00 pm
V
75 °F 6¼ mi+ - 270°   270° 7 kt METAR LFBU 201800Z AUTO 27007KT CAVOK 24/13 Q1023 NOSIG
7:30 pm
V
77 °F 6¼ mi+ - 270°   270° 9 kt METAR LFBU 201730Z AUTO 27009KT 240V300 CAVOK 25/14 Q1022 NOSIG
7:00 pm
V
77 °F 6¼ mi+ - 270°   270° 8 kt METAR LFBU 201700Z AUTO 27008KT CAVOK 25/14 Q1022 NOSIG
6:30 pm
V
77 °F 6¼ mi+ - 260°   260° 7 kt METAR LFBU 201630Z AUTO 26007KT 220V290 9999 FEW037 25/14 Q1022 NOSIG
6:00 pm
V
77 °F 6¼ mi+ - 270°   270° 11 kt METAR LFBU 201600Z AUTO 27011KT 9999 FEW035 25/16 Q1022 NOSIG
5:30 pm
V
77 °F 6¼ mi+ - 270°   270° 9 kt METAR LFBU 201530Z AUTO 27009KT 9999 FEW034 25/16 Q1022 NOSIG
5:00 pm
V
77 °F 6¼ mi+ 3,500 ft 260°   260° 10 kt METAR LFBU 201500Z AUTO 26010KT 9999 OVC035 25/16 Q1022 NOSIG
4:30 pm
V
77 °F 6¼ mi+ 3,300 ft 260°   260° 11 kt METAR LFBU 201430Z AUTO 26011KT 9999 BKN033 BKN039 25/17 Q1022 NOSIG
4:00 pm
V
77 °F 6¼ mi+ 3,000 ft 250°   250° 10 kt METAR LFBU 201400Z AUTO 25010KT 210V280 9999 OVC030 25/17 Q1022 NOSIG
3:30 pm
M
75 °F 6¼ mi+ 2,500 ft 240°   240° 10 kt METAR LFBU 201330Z AUTO 24010KT 210V270 9999 BKN025 24/17 Q1022 NOSIG
3:00 pm
M
75 °F 6¼ mi+ 2,100 ft 240°   240° 12 kt METAR LFBU 201300Z AUTO 24012KT 200V270 9999 BKN021 BKN027 BKN180 24/18 Q1022 NOSIG
2:30 pm
M
75 °F 6¼ mi+ 2,200 ft 250°   250° 11 kt METAR LFBU 201230Z AUTO 25011KT 9999 BKN022 OVC030 24/18 Q1021 NOSIG
2:00 pm
M
75 °F 6¼ mi+ 2,200 ft 220°   220° 11 kt METAR LFBU 201200Z AUTO 22011KT 190V250 9999 BKN022 BKN027 24/18 Q1021 NOSIG
1:30 pm
M
75 °F 6¼ mi+ 2,400 ft 210°   210° 10 kt METAR LFBU 201130Z AUTO 21010KT 170V240 9999 BKN024 BKN200 24/18 Q1021 BECMG 30010KT
1:00 pm
M
75 °F 6¼ mi+ 2,400 ft 220°   220° 10 kt METAR LFBU 201100Z AUTO 22010KT 180V250 9999 BKN024 BKN220 24/18 Q1020 NOSIG
12:30 pm
V
75 °F 6¼ mi+ 22,000 ft 210°   210° 10 kt METAR LFBU 201030Z AUTO 21010KT 170V250 9999 FEW028 SCT200 BKN220 24/17 Q1020 NOSIG
12:00 pm
V
77 °F 6¼ mi+ 18,000 ft 220°   220° 9 kt METAR LFBU 201000Z AUTO 22009KT 190V280 9999 FEW030 BKN180 BKN210 25/16 Q1020 TEMPO 24015G25KT
11:30 am
V
77 °F 6¼ mi+ - 180°   180° 9 kt METAR LFBU 200930Z AUTO 18009KT 140V230 CAVOK 25/16 Q1020 TEMPO 25015G25KT
11:00 am
V
75 °F 6¼ mi+ - 170°   170° 9 kt METAR LFBU 200900Z AUTO 17009KT 130V200 CAVOK 24/15 Q1019 TEMPO 25015G25KT
10:30 am
V
73 °F 6¼ mi+ - 170°   170° 10 kt METAR LFBU 200830Z AUTO 17010KT 130V200 CAVOK 23/14 Q1019 TEMPO 25015G25KT
10:00 am
V
73 °F 6¼ mi+ - 160°   160° 10 kt METAR LFBU 200800Z AUTO 16010KT 120V190 CAVOK 23/14 Q1019 TEMPO 25015G25KT
9:30 am
V
72 °F 6¼ mi+ - 160°   160° 10 kt METAR LFBU 200730Z AUTO 16010KT 130V200 CAVOK 22/13 Q1019 TEMPO 25015G25KT
9:00 am
V
70 °F 6¼ mi+ - 160°   160° 11 kt METAR LFBU 200700Z AUTO 16011KT 120V200 CAVOK 21/12 Q1018 TEMPO 25015G25KT
Older data

Download our app

Easy access to all aviation weather on your mobile phone and tablet.
With many features not available on the website, like offline support and a personal airport list.

We and third parties follow your internet behavior on our website with cookies. If you continue, we assume you agree with our cookie policy. Learn more